Time;durP1;ratioP1;P1;durP2;ratioP2;P2;SDS_P1;SDS_P2;PMS_P1;PMS_P2;Temp;Humidity;BMP_temperature;BMP_pressure;BME280_temperature;BME280_humidity;BME280_pressure;Samples;Min_cycle;Max_cycle;Signal;HPM_P1;HPM_P2
2024/01/31 00:00:57;;;;;;;16.85;10.80;;;;;;;-3.65;100.00;99382.34;1224905;75;2922721;-65
2024/01/31 00:03:30;;;;;;;14.90;9.75;;;;;;;-3.71;100.00;99381.75;1226065;75;2913340;-66
2024/01/31 00:06:03;;;;;;;14.15;9.65;;;;;;;-3.71;100.00;99381.75;1225155;75;2922639;-65
2024/01/31 00:08:39;;;;;;;12.55;9.25;;;;;;;-3.73;100.00;99386.69;1225603;75;2922889;-67
2024/01/31 00:11:12;;;;;;;13.90;9.45;;;;;;;-3.73;100.00;99385.91;1225682;75;2914174;-64
2024/01/31 00:13:44;;;;;;;16.90;11.45;;;;;;;-3.79;100.00;99380.00;1224925;75;2919239;-64
2024/01/31 00:16:17;;;;;;;18.80;13.50;;;;;;;-3.94;100.00;99389.50;1225221;75;2915311;-65
2024/01/31 00:18:50;;;;;;;19.80;14.75;;;;;;;-3.94;100.00;99383.38;1226014;75;2914060;-67
2024/01/31 00:21:23;;;;;;;18.85;14.05;;;;;;;-3.83;100.00;99381.78;1225306;75;2920763;-66
2024/01/31 00:23:58;;;;;;;19.10;13.40;;;;;;;-3.88;100.00;99382.78;1225365;75;2917099;-67
2024/01/31 00:26:31;;;;;;;17.45;12.10;;;;;;;-3.91;100.00;99377.34;1224793;75;2927662;-66
2024/01/31 00:29:04;;;;;;;16.45;11.90;;;;;;;-3.91;100.00;99377.34;1225447;75;2917183;-64
2024/01/31 00:31:36;;;;;;;20.45;13.75;;;;;;;-4.01;100.00;99372.47;1225523;75;2920801;-65
2024/01/31 00:34:09;;;;;;;19.40;13.65;;;;;;;-3.90;100.00;99366.28;1226215;75;2915716;-65
2024/01/31 00:36:42;;;;;;;22.00;15.60;;;;;;;-4.00;100.00;99369.44;1225584;75;2913544;-65
2024/01/31 00:39:20;;;;;;;24.60;16.85;;;;;;;-4.08;100.00;99375.69;1225080;75;2931281;-66
2024/01/31 00:41:54;;;;;;;26.90;21.00;;;;;;;-4.24;100.00;99378.25;1225808;67;2918123;-64
2024/01/31 00:44:27;;;;;;;21.65;15.95;;;;;;;-3.94;100.00;99378.03;1224906;75;2926667;-67
2024/01/31 00:47:00;;;;;;;21.05;15.45;;;;;;;-4.01;100.00;99383.16;1225402;75;2915583;-65
2024/01/31 00:49:32;;;;;;;19.45;13.80;;;;;;;-3.90;100.00;99387.69;1225149;75;2917784;-66
2024/01/31 00:52:05;;;;;;;19.40;15.15;;;;;;;-4.16;100.00;99384.59;1225323;75;2922985;-66
2024/01/31 00:54:41;;;;;;;21.30;15.60;;;;;;;-4.13;100.00;99391.97;1225818;75;2916676;-63
2024/01/31 00:57:13;;;;;;;21.80;14.75;;;;;;;-4.15;100.00;99386.94;1225237;75;2922551;-64
2024/01/31 00:59:46;;;;;;;19.90;13.00;;;;;;;-4.09;100.00;99385.63;1224866;75;2943139;-67
2024/01/31 01:02:19;;;;;;;17.15;12.85;;;;;;;-4.12;100.00;99385.50;1224992;75;2921568;-63
2024/01/31 01:04:52;;;;;;;19.70;14.50;;;;;;;-4.23;100.00;99379.03;1224657;75;2915419;-64
2024/01/31 01:07:25;;;;;;;16.90;12.65;;;;;;;-4.23;100.00;99374.47;1224936;75;2921067;-62
2024/01/31 01:10:00;;;;;;;22.45;14.60;;;;;;;-4.40;100.00;99375.47;1225844;75;2919721;-66
2024/01/31 01:12:33;;;;;;;21.10;15.20;;;;;;;-4.32;100.00;99379.16;1224356;75;2923744;-64
2024/01/31 01:15:07;;;;;;;18.05;13.15;;;;;;;-4.16;100.00;99376.56;1225357;75;2923826;-66
2024/01/31 01:17:41;;;;;;;15.65;12.15;;;;;;;-4.16;100.00;99385.41;1224973;75;2945009;-63
2024/01/31 01:20:14;;;;;;;13.95;10.60;;;;;;;-4.21;100.00;99384.81;1224975;75;2917021;-66
2024/01/31 01:22:47;;;;;;;13.10;9.95;;;;;;;-4.14;100.00;99388.50;1225173;75;2920383;-65
2024/01/31 01:25:22;;;;;;;12.20;9.55;;;;;;;-4.17;100.00;99381.16;1224879;75;2925425;-66
2024/01/31 01:27:55;;;;;;;11.05;8.60;;;;;;;-4.22;100.00;99388.63;1225605;75;2922582;-64
2024/01/31 01:30:28;;;;;;;12.05;8.55;;;;;;;-4.28;100.00;99382.72;1224819;75;2908674;-67
2024/01/31 01:33:00;;;;;;;11.15;8.20;;;;;;;-4.24;100.00;99374.81;1225448;75;2919958;-64
2024/01/31 01:35:33;;;;;;;11.90;9.00;;;;;;;-4.26;100.00;99367.09;1225192;75;2915720;-64
2024/01/31 01:38:06;;;;;;;11.35;8.05;;;;;;;-4.33;100.00;99365.00;1225286;75;2917621;-65
2024/01/31 01:40:47;;;;;;;11.50;8.35;;;;;;;-4.30;100.00;99361.66;1225583;75;2914534;-65
2024/01/31 01:43:23;;;;;;;12.25;7.90;;;;;;;-4.33;100.00;99361.53;1225423;75;2920813;-65
2024/01/31 01:46:06;;;;;;;11.40;8.60;;;;;;;-4.31;100.00;99359.31;1224795;75;2922696;-65
2024/01/31 01:48:39;;;;;;;11.75;8.35;;;;;;;-4.35;100.00;99359.22;1225616;75;2911552;-64
2024/01/31 01:51:12;;;;;;;11.50;8.20;;;;;;;-4.34;100.00;99360.75;1224985;75;2917806;-65
2024/01/31 01:53:46;;;;;;;11.25;7.50;;;;;;;-4.32;100.00;99361.22;1224478;75;2924103;-67
2024/01/31 01:56:24;;;;;;;11.55;8.30;;;;;;;-4.36;100.00;99360.31;1224946;75;2920714;-65
2024/01/31 01:58:57;;;;;;;12.00;7.60;;;;;;;-4.32;100.00;99352.41;1225546;75;2918606;-65
2024/01/31 02:01:30;;;;;;;10.95;8.00;;;;;;;-4.38;100.00;99354.50;1225289;75;2925737;-66
2024/01/31 02:04:05;;;;;;;9.80;7.15;;;;;;;-4.37;100.00;99347.28;1224988;75;2919627;-67
2024/01/31 02:06:38;;;;;;;10.75;7.85;;;;;;;-4.34;100.00;99343.94;1225135;75;2913779;-63
2024/01/31 02:09:11;;;;;;;11.20;7.90;;;;;;;-4.38;100.00;99346.50;1225125;75;2926374;-64
2024/01/31 02:11:47;;;;;;;12.85;9.00;;;;;;;-4.35;100.00;99347.75;1225211;75;2914477;-65
2024/01/31 02:14:20;;;;;;;13.65;8.75;;;;;;;-4.41;100.00;99341.03;1225071;75;2914727;-66
2024/01/31 02:16:57;;;;;;;13.70;9.80;;;;;;;-4.37;100.00;99341.94;1224608;75;2926265;-64
2024/01/31 02:19:29;;;;;;;12.85;8.45;;;;;;;-4.38;100.00;99337.69;1225025;75;2913434;-65
2024/01/31 02:22:08;;;;;;;13.50;9.35;;;;;;;-4.47;100.00;99332.47;1225684;75;2923368;-66
2024/01/31 02:24:44;;;;;;;15.70;11.05;;;;;;;-4.43;100.00;99336.03;1225736;75;2918082;-65
2024/01/31 02:27:17;;;;;;;15.50;11.20;;;;;;;-4.37;100.00;99326.69;1225213;75;2913859;-64
2024/01/31 02:29:49;;;;;;;12.50;9.55;;;;;;;-4.33;100.00;99326.78;1225255;75;2919593;-66
2024/01/31 02:32:22;;;;;;;14.25;10.50;;;;;;;-4.35;100.00;99332.47;1225086;75;2924754;-67
2024/01/31 02:34:55;;;;;;;15.00;9.85;;;;;;;-4.31;100.00;99324.56;1224555;75;2937871;-65
2024/01/31 02:37:28;;;;;;;13.65;9.95;;;;;;;-4.37;100.00;99329.34;1222515;75;3093671;-63
2024/01/31 02:40:04;;;;;;;12.55;9.15;;;;;;;-4.38;100.00;99329.69;1225841;75;2920388;-65
2024/01/31 02:42:37;;;;;;;14.75;9.85;;;;;;;-4.32;100.00;99328.34;1225025;75;2921343;-65
2024/01/31 02:45:11;;;;;;;18.00;11.65;;;;;;;-4.30;100.00;99334.91;1224800;75;2925025;-66
2024/01/31 02:47:46;;;;;;;22.40;14.30;;;;;;;-4.20;100.00;99338.25;1226212;75;2845710;-66
2024/01/31 02:50:19;;;;;;;21.05;13.95;;;;;;;-4.12;100.00;99329.34;1224776;75;2918915;-65
2024/01/31 02:52:52;;;;;;;18.00;12.25;;;;;;;-4.09;100.00;99328.66;1225513;75;2916942;-66
2024/01/31 02:55:28;;;;;;;16.25;11.35;;;;;;;-4.09;100.00;99331.31;1224962;75;2923772;-65
2024/01/31 02:58:01;;;;;;;13.10;9.60;;;;;;;-4.11;100.00;99322.88;1223989;75;2915783;-65
2024/01/31 03:00:34;;;;;;;12.45;8.90;;;;;;;-4.10;100.00;99325.19;1225282;75;2919794;-68
2024/01/31 03:03:07;;;;;;;14.45;9.25;;;;;;;-4.19;100.00;99313.06;1224715;75;2924356;-65
2024/01/31 03:05:39;;;;;;;14.50;10.35;;;;;;;-4.27;100.00;99325.44;1224332;75;2923436;-67
2024/01/31 03:08:12;;;;;;;14.30;9.50;;;;;;;-4.19;100.00;99318.41;1224504;75;2920554;-65
2024/01/31 03:10:48;;;;;;;12.15;8.20;;;;;;;-4.12;100.00;99316.72;1224529;75;2923826;-65
2024/01/31 03:13:20;;;;;;;15.55;10.85;;;;;;;-4.22;100.00;99319.88;1225819;75;2914485;-64
2024/01/31 03:15:53;;;;;;;15.90;11.15;;;;;;;-4.12;100.00;99323.97;1223763;75;2918725;-65
2024/01/31 03:18:26;;;;;;;14.25;10.40;;;;;;;-4.18;100.00;99317.31;1224891;75;2925754;-65
2024/01/31 03:20:59;;;;;;;13.00;9.55;;;;;;;-4.04;100.00;99309.72;1225787;75;2917505;-64
2024/01/31 03:23:32;;;;;;;11.30;8.65;;;;;;;-4.07;100.00;99315.72;1224647;75;2921541;-64
2024/01/31 03:26:07;;;;;;;12.60;8.10;;;;;;;-3.97;100.00;99309.94;1225037;75;2927621;-64
2024/01/31 03:28:40;;;;;;;11.85;7.60;;;;;;;-3.92;100.00;99316.91;1225362;75;2917175;-66
2024/01/31 03:31:13;;;;;;;11.60;8.20;;;;;;;-3.97;100.00;99315.28;1224503;75;2923127;-66
2024/01/31 03:33:46;;;;;;;11.20;8.15;;;;;;;-3.98;100.00;99302.25;1225585;75;2918146;-65
2024/01/31 03:36:19;;;;;;;11.15;7.60;;;;;;;-3.95;100.00;99306.91;1225102;75;2924427;-63
2024/01/31 03:38:53;;;;;;;12.45;7.90;;;;;;;-3.93;100.00;99316.16;1224991;75;2919113;-65
2024/01/31 03:41:29;;;;;;;9.50;6.95;;;;;;;-3.89;100.00;99314.38;1224934;75;2919931;-67
2024/01/31 03:44:02;;;;;;;11.10;7.20;;;;;;;-3.80;100.00;99313.44;1224904;75;2912000;-64
2024/01/31 03:46:35;;;;;;;8.45;6.40;;;;;;;-3.86;100.00;99308.34;1225519;75;2930437;-66
2024/01/31 03:49:08;;;;;;;9.80;7.00;;;;;;;-3.90;100.00;99317.38;1226107;75;2911360;-67
2024/01/31 03:51:40;;;;;;;17.50;10.65;;;;;;;-3.92;100.00;99323.06;1225725;75;2915438;-64
2024/01/31 03:54:13;;;;;;;21.80;15.50;;;;;;;-3.80;100.00;99316.13;1224792;75;2927074;-64
2024/01/31 03:56:49;;;;;;;17.40;12.40;;;;;;;-3.64;100.00;99312.38;1224952;75;2932313;-65
2024/01/31 03:59:22;;;;;;;16.15;11.70;;;;;;;-3.72;100.00;99316.00;1225508;75;2920813;-64
2024/01/31 04:01:54;;;;;;;13.45;10.45;;;;;;;-3.60;100.00;99317.09;1223959;75;2920508;-64
2024/01/31 04:04:27;;;;;;;13.50;10.30;;;;;;;-3.64;100.00;99323.09;1223998;75;2923079;-66
2024/01/31 04:07:00;;;;;;;12.05;9.75;;;;;;;-3.59;100.00;99327.44;1224082;75;2986748;-63
2024/01/31 04:09:33;;;;;;;13.10;9.15;;;;;;;-3.63;100.00;99321.22;1224632;75;2919497;-65
2024/01/31 04:12:09;;;;;;;11.70;8.90;;;;;;;-3.63;100.00;99321.22;1224751;75;2926417;-65
2024/01/31 04:14:42;;;;;;;11.85;8.70;;;;;;;-3.64;100.00;99330.34;1224393;75;2920288;-67
2024/01/31 04:17:15;;;;;;;10.25;8.00;;;;;;;-3.59;100.00;99332.00;1223910;75;2930298;-68
2024/01/31 04:19:48;;;;;;;10.30;7.45;;;;;;;-3.65;100.00;99331.47;1224282;75;2930541;-65
2024/01/31 04:22:21;;;;;;;12.25;8.20;;;;;;;-3.63;100.00;99334.59;1224198;75;2927987;-64
2024/01/31 04:24:54;;;;;;;9.85;7.30;;;;;;;-3.60;100.00;99339.28;1223985;75;2920740;-66
2024/01/31 04:27:30;;;;;;;10.05;7.95;;;;;;;-3.56;100.00;99340.16;1224763;75;2925184;-65
2024/01/31 04:30:03;;;;;;;10.05;7.45;;;;;;;-3.53;100.00;99338.69;1224388;75;2925753;-67
2024/01/31 04:32:35;;;;;;;11.10;8.35;;;;;;;-3.62;100.00;99338.81;1224039;75;2931871;-66
2024/01/31 04:35:12;;;;;;;12.20;8.80;;;;;;;-3.52;100.00;99332.97;1224079;75;2930485;-66
2024/01/31 04:37:45;;;;;;;9.45;6.90;;;;;;;-3.52;100.00;99338.34;1223691;75;2948849;-64
2024/01/31 04:40:19;;;;;;;10.10;7.60;;;;;;;-3.51;100.00;99333.75;1224411;75;2918420;-67
2024/01/31 04:42:54;;;;;;;11.80;8.10;;;;;;;-3.62;100.00;99343.41;1224560;75;2920708;-66
2024/01/31 04:45:27;;;;;;;15.90;11.20;;;;;;;-3.69;100.00;99338.63;1224308;75;2924639;-64
2024/01/31 04:47:59;;;;;;;17.05;12.75;;;;;;;-3.68;100.00;99340.97;1225461;75;2923488;-66
2024/01/31 04:50:32;;;;;;;16.25;12.05;;;;;;;-3.48;100.00;99335.78;1223726;75;2936272;-67
2024/01/31 04:53:05;;;;;;;14.00;9.65;;;;;;;-3.44;100.00;99332.09;1223664;75;2920894;-65
2024/01/31 04:55:38;;;;;;;13.30;9.00;;;;;;;-3.38;100.00;99335.28;1224179;75;2922871;-67
2024/01/31 04:58:13;;;;;;;10.00;7.90;;;;;;;-3.37;100.00;99328.03;1224820;75;2919386;-66
2024/01/31 05:00:46;;;;;;;11.00;8.70;;;;;;;-3.38;100.00;99331.84;1223963;75;2934264;-65
2024/01/31 05:03:19;;;;;;;15.75;11.40;;;;;;;-3.44;100.00;99332.09;1224756;75;2921682;-67
2024/01/31 05:05:52;;;;;;;15.40;9.70;;;;;;;-3.41;100.00;99330.63;1223235;75;2925310;-66
2024/01/31 05:08:25;;;;;;;12.90;9.50;;;;;;;-3.24;100.00;99324.97;1224312;75;2927847;-65
2024/01/31 05:10:57;;;;;;;12.90;7.95;;;;;;;-3.22;100.00;99328.09;1223795;75;2924606;-66
2024/01/31 05:13:33;;;;;;;9.75;7.45;;;;;;;-3.18;100.00;99330.84;1224764;75;2921684;-65
2024/01/31 05:16:10;;;;;;;11.00;7.25;;;;;;;-3.16;100.00;99327.81;1223751;75;2924956;-65
2024/01/31 05:18:44;;;;;;;9.90;7.80;;;;;;;-3.16;100.00;99333.19;1223907;75;2926652;-67
2024/01/31 05:21:17;;;;;;;10.00;7.70;;;;;;;-3.29;100.00;99337.81;1224306;75;2927419;-65
2024/01/31 05:23:50;;;;;;;11.30;7.45;;;;;;;-3.18;100.00;99336.19;1225040;75;2954142;-64
2024/01/31 05:26:23;;;;;;;10.25;7.50;;;;;;;-3.19;100.00;99336.56;1223891;75;2922772;-66
2024/01/31 05:28:58;;;;;;;10.10;7.60;;;;;;;-3.20;100.00;99341.13;1224039;75;2929148;-65
2024/01/31 05:31:31;;;;;;;8.90;6.60;;;;;;;-3.13;100.00;99335.94;1222980;75;2920156;-64
2024/01/31 05:34:04;;;;;;;9.15;6.95;;;;;;;-3.15;100.00;99337.41;1223652;75;2927801;-65
2024/01/31 05:36:37;;;;;;;8.25;6.70;;;;;;;-3.19;100.00;99334.66;1224055;75;2918626;-65
2024/01/31 05:39:11;;;;;;;9.70;7.25;;;;;;;-3.21;100.00;99336.88;1224457;75;2922867;-68
2024/01/31 05:41:45;;;;;;;9.65;7.05;;;;;;;-3.16;100.00;99336.63;1224234;75;2926286;-67
2024/01/31 05:44:21;;;;;;;10.90;7.70;;;;;;;-3.16;100.00;99335.88;1224399;75;2915739;-67
2024/01/31 05:46:56;;;;;;;9.90;6.90;;;;;;;-3.16;100.00;99338.53;1223885;75;2933220;-67
2024/01/31 05:49:29;;;;;;;12.65;8.85;;;;;;;-3.25;100.00;99344.84;1224180;75;2930181;-64
2024/01/31 05:52:02;;;;;;;11.80;9.00;;;;;;;-3.13;100.00;99343.97;1224082;75;2923117;-66
2024/01/31 05:54:35;;;;;;;11.45;8.60;;;;;;;-3.09;100.00;99349.44;1223460;75;2930294;-65
2024/01/31 05:57:08;;;;;;;12.40;8.70;;;;;;;-3.10;100.00;99350.56;1223675;75;2926159;-65
2024/01/31 05:59:46;;;;;;;10.75;7.70;;;;;;;-3.08;100.00;99354.47;1223965;75;2927811;-66
2024/01/31 06:02:18;;;;;;;10.60;7.80;;;;;;;-3.18;100.00;99357.63;1224401;75;2926409;-64
2024/01/31 06:04:51;;;;;;;11.40;8.95;;;;;;;-3.22;100.00;99351.41;1223773;75;2931199;-66
2024/01/31 06:07:24;;;;;;;19.05;12.85;;;;;;;-3.37;100.00;99358.25;1222944;75;2926756;-65
2024/01/31 06:09:57;;;;;;;17.35;12.30;;;;;;;-3.21;100.00;99355.63;1222362;75;2929140;-65
2024/01/31 06:12:30;;;;;;;15.30;10.70;;;;;;;-3.12;100.00;99356.28;1224057;75;2921574;-64
2024/01/31 06:15:06;;;;;;;13.95;9.80;;;;;;;-3.13;100.00;99364.63;1224202;75;2926369;-68
2024/01/31 06:17:41;;;;;;;10.75;8.25;;;;;;;-3.06;100.00;99359.47;1224219;75;2931092;-65
2024/01/31 06:20:15;;;;;;;10.10;7.65;;;;;;;-3.16;100.00;99363.41;1223598;75;2932825;-65
2024/01/31 06:22:48;;;;;;;12.65;8.50;;;;;;;-3.18;100.00;99360.31;1223691;75;2919445;-65
2024/01/31 06:25:21;;;;;;;13.20;9.30;;;;;;;-3.29;100.00;99360.03;1224401;75;2932531;-66
2024/01/31 06:27:53;;;;;;;14.10;10.05;;;;;;;-3.22;100.00;99360.22;1223994;75;2926218;-66
2024/01/31 06:30:31;;;;;;;16.30;11.25;;;;;;;-3.31;100.00;99362.25;1223103;75;2928367;-64
2024/01/31 06:33:08;;;;;;;19.60;13.00;;;;;;;-3.38;100.00;99356.72;1223728;75;2928976;-65
2024/01/31 06:35:47;;;;;;;19.10;13.50;;;;;;;-3.13;100.00;99354.69;1223358;75;2919441;-65
2024/01/31 06:38:20;;;;;;;14.85;11.85;;;;;;;-3.09;100.00;99352.13;1223558;75;2917905;-67
2024/01/31 06:40:58;;;;;;;13.85;10.05;;;;;;;-2.94;100.00;99356.72;1223872;75;2929021;-66
2024/01/31 06:43:30;;;;;;;11.95;8.65;;;;;;;-2.90;100.00;99356.84;1224350;75;2928430;-66
2024/01/31 06:46:06;;;;;;;14.55;8.55;;;;;;;-2.96;100.00;99363.56;1223796;75;2926981;-65
2024/01/31 06:48:39;;;;;;;12.15;8.85;;;;;;;-2.82;100.00;99367.38;1223602;75;2929001;-65
2024/01/31 06:51:12;;;;;;;11.75;8.45;;;;;;;-2.93;100.00;99363.66;1224246;75;2924166;-65
2024/01/31 06:53:45;;;;;;;13.20;8.75;;;;;;;-2.77;100.00;99366.34;1223775;75;2941116;-64
2024/01/31 06:56:19;;;;;;;11.80;8.90;;;;;;;-2.70;100.00;99365.75;1224042;75;2933945;-66
2024/01/31 06:58:54;;;;;;;10.65;7.90;;;;;;;-2.68;100.00;99374.25;1224238;75;2928232;-65
2024/01/31 07:01:30;;;;;;;14.15;9.05;;;;;;;-2.76;100.00;99367.91;1223739;75;2929800;-65
2024/01/31 07:04:02;;;;;;;11.55;7.90;;;;;;;-2.57;100.00;99361.88;1223550;75;2933132;-65
2024/01/31 07:06:35;;;;;;;12.35;8.45;;;;;;;-2.48;100.00;99373.19;1224034;75;2925900;-66
2024/01/31 07:09:08;;;;;;;14.80;10.20;;;;;;;-2.62;100.00;99376.31;1224023;75;2925906;-66
2024/01/31 07:11:42;;;;;;;21.75;13.85;;;;;;;-2.37;100.00;99374.25;1224304;75;2924950;-64
2024/01/31 07:14:15;;;;;;;16.90;13.10;;;;;;;-1.97;100.00;99380.53;1222613;75;2924176;-65
2024/01/31 07:16:50;;;;;;;20.10;14.45;;;;;;;-2.09;100.00;99383.31;1223681;75;2932711;-65
2024/01/31 07:19:25;;;;;;;22.85;15.70;;;;;;;-2.23;100.00;99381.88;1223680;75;2923007;-64
2024/01/31 07:21:59;;;;;;;18.70;14.30;;;;;;;-2.01;100.00;99377.00;1224692;75;2925225;-64
2024/01/31 07:24:35;;;;;;;18.45;14.35;;;;;;;-2.26;100.00;99371.84;1224322;75;2921821;-64
2024/01/31 07:27:08;;;;;;;24.50;15.45;;;;;;;-2.06;100.00;99375.34;1223944;75;2924636;-65
2024/01/31 07:29:41;;;;;;;18.60;13.10;;;;;;;-1.90;100.00;99374.53;1223856;75;2920726;-63
2024/01/31 07:32:16;;;;;;;17.45;12.15;;;;;;;-2.04;100.00;99370.41;1223310;75;2927820;-66
2024/01/31 07:34:49;;;;;;;29.50;18.30;;;;;;;-2.14;100.00;99379.00;1224136;75;2925722;-65
2024/01/31 07:37:22;;;;;;;25.80;18.35;;;;;;;-1.87;100.00;99371.19;1223378;75;2929533;-63
2024/01/31 07:39:56;;;;;;;23.95;18.40;;;;;;;-1.24;100.00;99376.31;1222670;75;2934235;-65
2024/01/31 07:42:29;;;;;;;21.20;14.25;;;;;;;-0.69;100.00;99382.34;1223672;75;2921723;-64
2024/01/31 07:45:02;;;;;;;17.85;13.60;;;;;;;0.38;100.00;99371.66;1223238;75;2923807;-65
2024/01/31 07:47:38;;;;;;;15.80;12.35;;;;;;;0.66;100.00;99378.59;1222772;75;2930562;-64
2024/01/31 07:50:12;;;;;;;20.45;15.30;;;;;;;0.20;100.00;99391.06;1223562;75;2918285;-65
2024/01/31 07:52:45;;;;;;;30.90;21.95;;;;;;;0.75;99.32;99385.25;1223956;75;2921148;-65
2024/01/31 07:55:18;;;;;;;22.60;17.90;;;;;;;0.94;97.93;99384.31;1223217;75;2953213;-65
2024/01/31 07:57:50;;;;;;;23.55;17.25;;;;;;;0.47;99.67;99393.75;1223679;75;2921734;-64
2024/01/31 08:00:24;;;;;;;21.25;16.55;;;;;;;1.11;97.32;99390.25;1223873;75;2926530;-67
2024/01/31 08:02:59;;;;;;;17.55;14.45;;;;;;;1.68;93.40;99393.50;1223548;75;2923109;-65
2024/01/31 08:05:32;;;;;;;17.00;13.70;;;;;;;2.87;84.96;99390.38;1223376;75;2921917;-65
2024/01/31 08:08:05;;;;;;;31.50;21.85;;;;;;;1.75;86.05;99387.38;1223142;75;2925101;-65
2024/01/31 08:10:38;;;;;;;27.75;22.10;;;;;;;1.82;87.65;99390.16;1223726;75;2919952;-64
2024/01/31 08:13:12;;;;;;;26.25;19.80;;;;;;;1.74;88.98;99392.03;1223782;75;2920146;-67
2024/01/31 08:15:44;;;;;;;25.00;19.50;;;;;;;1.89;88.22;99398.31;1222905;75;2926731;-65
2024/01/31 08:18:20;;;;;;;24.30;17.95;;;;;;;1.68;88.63;99388.91;1223519;75;2923204;-66
2024/01/31 08:20:53;;;;;;;23.00;17.00;;;;;;;1.78;90.09;99394.72;1222703;75;2951765;-66
2024/01/31 08:23:26;;;;;;;26.70;17.80;;;;;;;1.59;91.89;99399.22;1223459;75;2919781;-66
2024/01/31 08:25:59;;;;;;;23.80;16.50;;;;;;;1.57;92.02;99390.72;1224557;75;2918895;-65
2024/01/31 08:28:32;;;;;;;22.40;16.25;;;;;;;1.72;90.61;99394.31;1223900;75;2917495;-67
2024/01/31 08:31:05;;;;;;;18.95;14.35;;;;;;;1.74;91.76;99388.53;1223412;75;2925415;-66
2024/01/31 08:33:40;;;;;;;17.60;12.90;;;;;;;2.27;88.91;99399.72;1223186;75;2919346;-65
2024/01/31 08:36:13;;;;;;;17.80;12.95;;;;;;;2.00;88.75;99388.38;1223317;75;2924912;-65
2024/01/31 08:38:46;;;;;;;17.45;12.90;;;;;;;1.86;88.87;99382.84;1222702;75;2932818;-65
2024/01/31 08:41:19;;;;;;;24.15;16.60;;;;;;;1.01;96.60;99380.91;1223335;75;2929753;-65
2024/01/31 08:43:52;;;;;;;27.90;18.30;;;;;;;1.50;95.26;99385.25;1222848;75;2924560;-66
2024/01/31 08:46:26;;;;;;;25.55;17.85;;;;;;;1.35;95.28;99384.34;1222808;75;2923287;-66
2024/01/31 08:49:02;;;;;;;22.35;15.35;;;;;;;1.88;91.37;99386.72;1223905;75;2931024;-64
2024/01/31 08:51:38;;;;;;;27.05;18.30;;;;;;;1.42;95.47;99387.13;1223683;75;2924014;-66
2024/01/31 08:54:11;;;;;;;31.15;20.40;;;;;;;0.77;100.00;99388.34;1221273;75;2951012;-64
2024/01/31 08:56:43;;;;;;;28.40;19.10;;;;;;;1.16;100.00;99389.94;1224311;75;2919276;-66
2024/01/31 08:59:17;;;;;;;36.85;23.20;;;;;;;0.86;100.00;99374.56;1224052;75;2914890;-67
2024/01/31 09:01:50;;;;;;;32.55;21.70;;;;;;;0.87;100.00;99372.66;1223399;75;2921881;-64
2024/01/31 09:04:26;;;;;;;41.10;26.10;;;;;;;0.95;100.00;99374.28;1223128;75;2926284;-65
2024/01/31 09:06:59;;;;;;;41.00;26.85;;;;;;;0.74;100.00;99377.50;1223939;75;2908090;-67
2024/01/31 09:09:33;;;;;;;43.85;29.40;;;;;;;0.54;100.00;99382.28;1223381;75;2922334;-65
2024/01/31 09:12:06;;;;;;;38.55;26.25;;;;;;;0.93;100.00;99380.03;1223727;75;2929886;-68
2024/01/31 09:14:39;;;;;;;39.25;26.50;;;;;;;1.13;100.00;99369.88;1222935;75;2920201;-65
2024/01/31 09:17:12;;;;;;;38.75;26.10;;;;;;;1.02;100.00;99369.75;1222809;75;2928162;-65
2024/01/31 09:19:49;;;;;;;42.50;27.30;;;;;;;1.05;100.00;99371.69;1223188;75;2941502;-66
2024/01/31 09:22:24;;;;;;;31.95;22.95;;;;;;;1.73;100.00;99362.69;1207961;75;4072284;-65
2024/01/31 09:24:57;;;;;;;35.95;25.10;;;;;;;1.62;98.47;99362.63;1222989;75;2924325;-66
2024/01/31 09:27:29;;;;;;;30.55;21.95;;;;;;;1.98;97.62;99358.25;1223690;75;2926986;-64
2024/01/31 09:30:03;;;;;;;37.65;23.70;;;;;;;1.54;96.68;99360.97;1222985;75;2917722;-66
2024/01/31 09:32:36;;;;;;;34.00;22.65;;;;;;;2.47;93.90;99362.38;1223398;75;2922640;-66
2024/01/31 09:35:12;;;;;;;32.15;22.70;;;;;;;2.78;88.69;99363.66;1223898;75;2924969;-67
2024/01/31 09:37:45;;;;;;;30.90;20.25;;;;;;;3.63;84.60;99362.31;1223097;75;2924500;-64
2024/01/31 09:40:19;;;;;;;31.65;22.25;;;;;;;4.20;81.32;99371.53;1223278;75;2928255;-66
2024/01/31 09:42:54;;;;;;;29.20;20.20;;;;;;;5.38;76.07;99360.19;1223241;75;2925805;-64
2024/01/31 09:45:28;;;;;;;35.15;23.40;;;;;;;5.23;73.26;99356.03;1223450;75;2924414;-65
2024/01/31 09:48:02;;;;;;;35.05;23.60;;;;;;;5.73;71.20;99350.22;1223230;75;2923591;-64
2024/01/31 09:50:38;;;;;;;35.60;22.95;;;;;;;5.88;72.18;99362.50;1223279;75;2923627;-64
2024/01/31 09:53:10;;;;;;;37.15;24.50;;;;;;;5.70;70.43;99340.94;1222789;75;2919349;-65
2024/01/31 09:55:44;;;;;;;36.20;23.50;;;;;;;6.86;68.86;99351.41;1222911;75;2923489;-65
2024/01/31 09:58:17;;;;;;;39.85;23.70;;;;;;;6.56;68.48;99348.25;1223406;75;2925129;-66
2024/01/31 10:00:53;;;;;;;32.50;21.20;;;;;;;6.35;69.13;99353.91;1223495;75;2926675;-64
2024/01/31 10:03:27;;;;;;;34.50;22.70;;;;;;;6.26;69.52;99348.97;1223294;75;2927644;-65
2024/01/31 10:06:03;;;;;;;33.55;21.30;;;;;;;5.69;70.55;99357.63;1222707;75;2925657;-65
2024/01/31 10:08:36;;;;;;;27.00;19.80;;;;;;;7.08;67.75;99344.47;1223915;75;2924960;-64
2024/01/31 10:11:09;;;;;;;34.90;21.75;;;;;;;6.49;65.89;99342.13;1224445;75;2918383;-66
2024/01/31 10:13:43;;;;;;;28.80;18.70;;;;;;;6.49;66.96;99345.59;1223896;75;2923538;-65
2024/01/31 10:16:16;;;;;;;28.25;18.05;;;;;;;7.88;63.16;99340.13;1224265;75;2920307;-64
2024/01/31 10:18:49;;;;;;;30.95;19.90;;;;;;;8.20;61.37;99338.00;1224299;75;2920563;-67
2024/01/31 10:21:26;;;;;;;25.85;17.60;;;;;;;8.05;60.87;99337.50;1224139;75;2921108;-65
2024/01/31 10:24:03;;;;;;;26.05;19.10;;;;;;;8.51;59.89;99333.94;1224973;75;2930598;-66
2024/01/31 10:26:36;;;;;;;27.30;17.80;;;;;;;8.60;60.99;99332.59;1224373;75;2926672;-67
2024/01/31 10:29:11;;;;;;;25.25;17.25;;;;;;;7.89;61.76;99316.38;1225064;75;2916364;-64
2024/01/31 10:31:46;;;;;;;26.30;16.95;;;;;;;8.97;58.45;99315.03;1224932;75;2925169;-66
2024/01/31 10:34:20;;;;;;;24.80;16.05;;;;;;;9.04;58.50;99312.13;1225302;75;2913250;-63
2024/01/31 10:36:56;;;;;;;25.65;17.25;;;;;;;9.16;58.18;99300.56;1224781;75;2942691;-64
2024/01/31 10:39:31;;;;;;;22.05;15.25;;;;;;;10.37;55.46;99303.41;1224982;75;2919897;-64
2024/01/31 10:42:04;;;;;;;20.65;14.35;;;;;;;10.20;54.31;99295.22;1224455;75;2923415;-64
2024/01/31 10:44:37;;;;;;;23.70;14.30;;;;;;;9.34;54.63;99285.72;1224203;75;2922336;-66
2024/01/31 10:47:11;;;;;;;20.95;13.75;;;;;;;12.08;52.70;99285.56;1223523;75;2934887;-66
2024/01/31 10:49:44;;;;;;;18.05;12.20;;;;;;;12.31;51.20;99282.38;1224310;75;2921522;-64
2024/01/31 10:52:25;;;;;;;21.10;13.65;;;;;;;10.14;52.13;99280.53;1224391;75;2930025;-65
2024/01/31 10:55:02;;;;;;;22.10;13.15;;;;;;;11.41;50.75;99268.16;1225225;75;2919052;-65
2024/01/31 10:57:37;;;;;;;14.45;10.35;;;;;;;13.30;48.84;99275.50;1224045;75;2920460;-65
2024/01/31 11:00:24;;;;;;;15.10;10.30;;;;;;;13.52;46.58;99278.19;1224200;75;2918924;-66
2024/01/31 11:02:58;;;;;;;14.60;10.45;;;;;;;13.54;47.29;99271.00;1223322;75;2938698;-66
2024/01/31 11:05:33;;;;;;;11.95;9.05;;;;;;;14.02;45.78;99268.59;1224058;75;2925423;-64
2024/01/31 11:08:19;;;;;;;11.45;8.80;;;;;;;14.24;46.11;99267.66;1223874;75;2931316;-65
2024/01/31 11:10:52;;;;;;;20.85;13.25;;;;;;;12.51;47.57;99254.56;1224236;75;2922949;-64
2024/01/31 11:13:25;;;;;;;19.15;12.60;;;;;;;11.60;47.72;99257.38;1224035;75;2927837;-68
2024/01/31 11:15:58;;;;;;;13.45;9.45;;;;;;;13.28;46.25;99253.22;1225651;75;2926071;-65
2024/01/31 11:18:33;;;;;;;12.20;8.05;;;;;;;14.42;44.52;99239.28;1224618;75;2923305;-66
2024/01/31 11:21:10;;;;;;;15.05;9.05;;;;;;;14.12;44.42;99243.75;1224686;75;2926040;-65
2024/01/31 11:23:45;;;;;;;16.20;9.40;;;;;;;14.11;43.79;99234.75;1224461;75;2928890;-65
2024/01/31 11:26:18;;;;;;;12.55;7.95;;;;;;;14.76;43.58;99231.84;1224921;75;2920404;-65
2024/01/31 11:28:52;;;;;;;16.95;10.30;;;;;;;13.58;44.88;99230.31;1224589;75;2922090;-67
2024/01/31 11:31:24;;;;;;;18.30;11.20;;;;;;;14.32;44.11;99219.25;1224680;75;2924297;-67